Time;durP1;ratioP1;P1;durP2;ratioP2;P2;SDS_P1;SDS_P2;PMS_P1;PMS_P2;Temp;Humidity;BMP_temperature;BMP_pressure;BME280_temperature;BME280_humidity;BME280_pressure;Samples;Min_cycle;Max_cycle;Signal;HPM_P1;HPM_P2
2023/08/08 00:00:13;;;;;;;5.90;2.53;;;16.40;98.30;;;;;;4950999;28;20027;-78
2023/08/08 00:02:39;;;;;;;6.50;2.70;;;16.40;98.50;;;;;;4948919;28;20118;-78
2023/08/08 00:05:05;;;;;;;4.10;2.60;;;16.50;98.40;;;;;;4931950;29;20028;-78
2023/08/08 00:07:31;;;;;;;8.40;2.63;;;16.40;98.50;;;;;;4932665;28;20074;-79
2023/08/08 00:09:59;;;;;;;8.15;2.83;;;16.30;98.60;;;;;;4950506;28;20480;-79
2023/08/08 00:12:24;;;;;;;3.13;2.40;;;16.20;98.60;;;;;;4933007;28;20437;-78
2023/08/08 00:14:50;;;;;;;8.52;2.40;;;16.10;98.90;;;;;;4932516;29;20146;-78
2023/08/08 00:17:18;;;;;;;3.58;2.83;;;16.10;99.00;;;;;;4931533;28;20019;-78
2023/08/08 00:19:43;;;;;;;5.45;2.40;;;16.10;98.90;;;;;;4932704;29;20031;-78
2023/08/08 00:22:09;;;;;;;6.32;2.75;;;16.00;98.90;;;;;;4948413;28;20030;-79
2023/08/08 00:24:37;;;;;;;5.40;2.50;;;16.00;98.90;;;;;;4946917;28;20031;-79
2023/08/08 00:27:03;;;;;;;3.40;2.83;;;16.00;99.10;;;;;;4949375;28;20478;-88
2023/08/08 00:29:29;;;;;;;6.18;2.97;;;16.10;98.90;;;;;;4949071;28;20119;-90
2023/08/08 00:31:55;;;;;;;3.00;2.30;;;16.20;98.70;;;;;;4952605;28;20027;-89
2023/08/08 00:34:21;;;;;;;10.40;2.40;;;16.10;98.80;;;;;;4952417;28;20055;-90
2023/08/08 00:36:48;;;;;;;2.92;2.42;;;16.20;98.70;;;;;;4925420;28;20023;-90
2023/08/08 00:39:14;;;;;;;2.95;2.28;;;16.20;98.70;;;;;;4951005;28;20036;-90
2023/08/08 00:41:42;;;;;;;12.88;2.97;;;16.10;99.20;;;;;;4950114;28;20128;-90
2023/08/08 00:44:08;;;;;;;7.07;2.92;;;15.90;98.90;;;;;;4952156;28;20029;-90
2023/08/08 00:46:34;;;;;;;2.65;2.20;;;15.90;98.90;;;;;;4935028;28;20027;-89
2023/08/08 00:48:59;;;;;;;2.70;2.50;;;15.90;98.90;;;;;;4950382;28;20107;-91
2023/08/08 00:51:25;;;;;;;5.50;2.60;;;15.90;99.00;;;;;;4952172;28;20031;-90
2023/08/08 00:53:51;;;;;;;8.75;2.70;;;15.90;98.90;;;;;;4932697;28;20518;-89
2023/08/08 00:56:20;;;;;;;8.18;2.35;;;15.90;98.90;;;;;;4951808;28;20030;-90
2023/08/08 00:58:46;;;;;;;6.57;2.42;;;15.80;99.00;;;;;;4932270;28;20046;-90
2023/08/08 01:01:12;;;;;;;5.93;2.95;;;15.90;99.00;;;;;;4948779;28;20020;-91
2023/08/08 01:03:38;;;;;;;4.63;2.70;;;15.90;99.00;;;;;;4952367;28;20049;-91
2023/08/08 01:06:24;;;;;;;5.28;2.65;;;15.80;99.20;;;;;;4950936;28;20015;-90
2023/08/08 01:09:04;;;;;;;5.95;2.35;;;15.80;99.20;;;;;;4951090;28;20019;-86
2023/08/08 01:11:33;;;;;;;4.10;2.78;;;15.70;99.10;;;;;;4949536;28;20023;-90
2023/08/08 01:14:02;;;;;;;6.03;2.60;;;15.60;99.30;;;;;;4953092;28;20070;-89
2023/08/08 01:16:28;;;;;;;5.22;2.60;;;15.50;99.50;;;;;;4950213;28;20023;-90
2023/08/08 01:18:55;;;;;;;4.57;2.80;;;15.60;99.60;;;;;;4950584;28;20047;-89
2023/08/08 01:21:20;;;;;;;4.15;2.50;;;15.60;99.40;;;;;;4952350;28;20027;-89
2023/08/08 01:23:52;;;;;;;3.85;2.63;;;15.60;99.50;;;;;;4948430;28;20078;-89
2023/08/08 01:26:18;;;;;;;4.32;2.25;;;15.70;99.40;;;;;;4951770;28;20504;-89
2023/08/08 01:28:44;;;;;;;5.80;2.70;;;15.60;99.40;;;;;;4949253;28;20023;-90
2023/08/08 01:31:15;;;;;;;3.25;2.45;;;15.70;99.20;;;;;;4950957;28;20331;-90
2023/08/08 01:33:40;;;;;;;5.43;3.05;;;15.70;99.40;;;;;;4932165;29;20130;-90
2023/08/08 01:36:24;;;;;;;9.35;2.63;;;15.70;99.50;;;;;;4947045;28;20465;-89
2023/08/08 01:38:54;;;;;;;5.55;2.55;;;15.80;99.30;;;;;;4951530;28;20062;-90
2023/08/08 01:41:23;;;;;;;7.63;3.05;;;15.80;99.20;;;;;;4951371;28;20034;-90
2023/08/08 01:43:49;;;;;;;8.68;2.55;;;15.70;99.40;;;;;;4961931;28;20031;-86
2023/08/08 01:46:15;;;;;;;5.43;2.72;;;15.70;99.50;;;;;;4954597;28;20182;-79
2023/08/08 01:48:45;;;;;;;8.30;2.58;;;15.70;99.60;;;;;;4951308;28;20594;-78
2023/08/08 01:51:11;;;;;;;4.70;2.90;;;15.80;99.40;;;;;;4949751;28;20380;-78
2023/08/08 01:53:36;;;;;;;6.30;2.45;;;15.80;99.30;;;;;;4948436;28;20035;-78
2023/08/08 01:56:02;;;;;;;4.00;2.22;;;15.80;99.20;;;;;;4946827;28;20059;-79
2023/08/08 01:58:30;;;;;;;5.40;2.53;;;15.80;99.20;;;;;;4946054;28;20028;-78
2023/08/08 02:01:01;;;;;;;8.27;2.45;;;15.90;99.00;;;;;;4929550;28;20191;-78
2023/08/08 02:03:26;;;;;;;5.40;2.92;;;15.80;99.20;;;;;;4946301;28;20054;-79
2023/08/08 02:05:52;;;;;;;6.15;3.08;;;15.90;99.20;;;;;;4925816;28;20027;-78
2023/08/08 02:08:20;;;;;;;5.50;2.33;;;15.90;99.20;;;;;;4945041;28;20405;-79
2023/08/08 02:10:45;;;;;;;4.30;2.63;;;15.80;99.50;;;;;;4950732;28;20419;-78
2023/08/08 02:13:11;;;;;;;4.93;2.42;;;15.80;99.40;;;;;;4932669;29;20062;-78
2023/08/08 02:15:38;;;;;;;8.00;2.53;;;15.90;99.40;;;;;;4949818;28;20718;-79
2023/08/08 02:18:05;;;;;;;7.32;2.33;;;16.00;99.30;;;;;;4950632;28;20027;-78
2023/08/08 02:20:31;;;;;;;5.35;2.30;;;15.80;99.60;;;;;;4950488;28;20207;-78
2023/08/08 02:22:56;;;;;;;9.63;2.70;;;15.80;99.60;;;;;;4931702;29;20165;-78
2023/08/08 02:25:22;;;;;;;5.25;2.20;;;15.90;99.60;;;;;;4949333;28;20035;-77
2023/08/08 02:27:47;;;;;;;7.55;2.53;;;15.80;99.80;;;;;;4948787;28;20024;-77
2023/08/08 02:30:13;;;;;;;8.98;2.92;;;15.70;99.90;;;;;;4950478;28;20019;-77
2023/08/08 02:32:42;;;;;;;5.35;2.70;;;15.60;99.90;;;;;;4930639;28;20035;-78
2023/08/08 02:35:08;;;;;;;7.15;2.72;;;15.60;99.90;;;;;;4929475;29;20428;-77
2023/08/08 02:37:38;;;;;;;6.85;2.25;;;15.60;99.90;;;;;;4947693;28;20038;-78
2023/08/08 02:40:05;;;;;;;4.43;2.50;;;15.70;99.90;;;;;;4945650;28;20097;-78
2023/08/08 02:42:30;;;;;;;6.10;2.20;;;15.80;99.90;;;;;;4948963;28;20615;-78
2023/08/08 02:44:56;;;;;;;6.22;2.25;;;15.80;99.90;;;;;;4948911;28;20027;-78
2023/08/08 02:47:22;;;;;;;3.60;2.67;;;15.90;99.90;;;;;;4950052;28;20019;-78
2023/08/08 02:49:47;;;;;;;7.30;2.63;;;15.90;99.90;;;;;;4932565;29;20479;-78
2023/08/08 02:52:13;;;;;;;4.13;2.35;;;15.90;99.90;;;;;;4946804;28;20035;-78
2023/08/08 02:54:38;;;;;;;5.40;2.40;;;15.80;99.90;;;;;;4949402;28;20035;-78
2023/08/08 02:57:04;;;;;;;7.63;2.85;;;15.70;99.90;;;;;;4929112;28;20023;-78
2023/08/08 02:59:32;;;;;;;2.78;2.40;;;15.80;99.90;;;;;;4924167;29;20442;-78
2023/08/08 03:01:58;;;;;;;3.58;2.60;;;15.90;99.90;;;;;;4932048;29;20034;-77
2023/08/08 03:04:23;;;;;;;4.85;2.47;;;15.80;99.90;;;;;;4948636;28;20646;-78
2023/08/08 03:06:51;;;;;;;5.45;2.47;;;15.70;99.90;;;;;;4949499;28;20472;-78
2023/08/08 03:09:17;;;;;;;7.78;2.47;;;15.80;99.90;;;;;;4942437;28;20118;-77
2023/08/08 03:11:42;;;;;;;7.32;2.60;;;15.90;99.90;;;;;;4928524;28;20118;-78
2023/08/08 03:14:13;;;;;;;5.82;2.78;;;16.00;99.90;;;;;;4949103;28;20063;-78
2023/08/08 03:16:39;;;;;;;5.22;2.75;;;16.00;99.90;;;;;;4924737;28;20036;-78
2023/08/08 03:19:05;;;;;;;9.52;2.88;;;16.00;99.90;;;;;;4923303;28;20035;-78
2023/08/08 03:21:30;;;;;;;4.18;2.58;;;15.90;99.90;;;;;;4949407;28;20042;-78
2023/08/08 03:23:57;;;;;;;11.75;2.88;;;15.80;99.90;;;;;;4948376;28;20031;-78
2023/08/08 03:26:22;;;;;;;11.95;3.10;;;15.80;99.90;;;;;;4951020;28;20030;-78
2023/08/08 03:28:50;;;;;;;6.00;2.85;;;15.70;99.90;;;;;;5067768;23;21845;-87
2023/08/08 03:31:17;;;;;;;9.43;3.35;;;15.70;99.90;;;;;;4946319;28;20027;-78
2023/08/08 03:33:43;;;;;;;11.05;3.63;;;15.50;99.90;;;;;;4943978;28;20062;-78
2023/08/08 03:36:09;;;;;;;8.18;3.13;;;15.50;99.90;;;;;;4941777;28;20031;-77
2023/08/08 03:38:35;;;;;;;12.55;3.80;;;15.60;99.90;;;;;;4942889;28;20544;-78
2023/08/08 03:41:03;;;;;;;7.55;3.35;;;15.40;99.90;;;;;;4942556;28;20027;-77
2023/08/08 03:43:28;;;;;;;10.63;3.70;;;15.30;99.90;;;;;;4933439;28;20062;-77
2023/08/08 03:45:54;;;;;;;7.25;3.97;;;15.30;99.90;;;;;;4942684;28;20513;-77
2023/08/08 03:48:20;;;;;;;7.22;3.30;;;15.20;99.90;;;;;;4942554;28;20020;-78
2023/08/08 03:50:46;;;;;;;13.30;4.13;;;15.30;99.90;;;;;;4925046;28;20031;-77
2023/08/08 03:53:14;;;;;;;8.80;4.18;;;15.30;99.90;;;;;;4942473;28;20090;-77
2023/08/08 03:55:40;;;;;;;8.38;3.67;;;15.30;99.90;;;;;;4940601;28;20028;-77
2023/08/08 03:58:05;;;;;;;10.90;4.20;;;15.20;99.90;;;;;;4920291;28;20041;-77
2023/08/08 04:00:31;;;;;;;9.43;3.53;;;15.30;99.90;;;;;;4944548;28;20104;-77
2023/08/08 04:02:57;;;;;;;8.95;3.70;;;15.40;99.90;;;;;;4927699;29;20027;-77
2023/08/08 04:05:23;;;;;;;13.65;3.90;;;15.30;99.90;;;;;;4927755;29;20498;-78
2023/08/08 04:07:48;;;;;;;9.70;4.20;;;15.30;99.90;;;;;;4921674;28;20543;-77
2023/08/08 04:10:14;;;;;;;10.27;3.60;;;15.20;99.90;;;;;;4942922;28;20031;-77
2023/08/08 04:12:40;;;;;;;15.57;4.47;;;15.20;99.90;;;;;;4946173;28;20090;-77
2023/08/08 04:15:05;;;;;;;14.27;4.30;;;15.20;99.90;;;;;;4945651;28;20431;-76
2023/08/08 04:17:31;;;;;;;19.58;5.05;;;15.30;99.90;;;;;;4942712;28;20027;-77
2023/08/08 04:19:57;;;;;;;9.07;4.65;;;15.30;99.90;;;;;;4927016;28;20038;-77
2023/08/08 04:22:22;;;;;;;15.45;4.55;;;15.30;99.90;;;;;;4923848;28;20028;-77
2023/08/08 04:24:50;;;;;;;9.88;4.88;;;15.30;99.90;;;;;;4946000;28;20031;-77
2023/08/08 04:27:16;;;;;;;9.23;4.43;;;15.20;99.90;;;;;;4925509;28;20498;-77
2023/08/08 04:29:44;;;;;;;16.63;4.50;;;15.30;99.90;;;;;;4925708;29;20039;-78
2023/08/08 04:32:09;;;;;;;13.55;4.40;;;15.30;99.90;;;;;;4926838;28;20040;-77
2023/08/08 04:34:35;;;;;;;7.72;4.05;;;15.20;99.90;;;;;;4922808;29;20035;-77
2023/08/08 04:37:01;;;;;;;16.95;4.07;;;15.30;99.90;;;;;;4945518;28;20030;-77
2023/08/08 04:39:26;;;;;;;12.00;4.03;;;15.40;99.90;;;;;;4921724;28;20031;-77
2023/08/08 04:41:52;;;;;;;8.25;4.15;;;15.30;99.90;;;;;;4945875;28;20724;-77
2023/08/08 04:44:19;;;;;;;9.38;4.32;;;15.20;99.90;;;;;;4944484;28;20026;-79
2023/08/08 04:46:45;;;;;;;12.10;4.60;;;15.20;99.90;;;;;;4927682;29;20039;-77
2023/08/08 04:49:11;;;;;;;15.02;4.80;;;15.20;99.90;;;;;;4943867;28;20023;-77
2023/08/08 04:51:36;;;;;;;10.13;4.70;;;15.10;99.90;;;;;;4946285;28;20031;-79
2023/08/08 04:54:04;;;;;;;12.02;4.75;;;15.20;99.90;;;;;;4919474;29;20054;-79
2023/08/08 04:56:30;;;;;;;5.55;4.20;;;15.00;99.90;;;;;;4929687;28;20038;-78
2023/08/08 04:58:55;;;;;;;14.93;4.68;;;15.00;99.90;;;;;;4928569;29;20038;-77
2023/08/08 05:01:21;;;;;;;13.40;4.30;;;15.10;99.90;;;;;;4942602;28;20110;-77
2023/08/08 05:03:48;;;;;;;17.60;4.25;;;15.20;99.90;;;;;;4944259;28;20027;-77
2023/08/08 05:06:13;;;;;;;14.30;5.00;;;15.20;99.90;;;;;;4919118;28;20083;-78
2023/08/08 05:08:42;;;;;;;10.93;5.25;;;15.00;99.90;;;;;;4949578;28;20016;-88
2023/08/08 05:11:07;;;;;;;9.93;5.20;;;15.10;99.90;;;;;;4952569;28;20050;-87
2023/08/08 05:13:33;;;;;;;12.75;5.18;;;15.20;99.90;;;;;;4949043;28;20078;-88
2023/08/08 05:15:58;;;;;;;16.17;5.53;;;15.20;99.90;;;;;;4934720;29;20051;-87
2023/08/08 05:18:26;;;;;;;15.35;6.22;;;15.20;99.90;;;;;;4928848;28;20173;-89
2023/08/08 05:20:54;;;;;;;16.20;5.97;;;15.30;99.90;;;;;;4947079;28;20099;-86
2023/08/08 05:23:22;;;;;;;12.70;5.95;;;15.30;99.90;;;;;;4948560;28;20122;-87
2023/08/08 05:25:48;;;;;;;17.77;6.03;;;15.50;99.90;;;;;;4947722;28;20027;-90
2023/08/08 05:28:14;;;;;;;20.20;6.68;;;15.40;99.90;;;;;;4948808;28;20199;-86
2023/08/08 05:30:40;;;;;;;14.88;5.78;;;15.40;99.90;;;;;;4946884;28;20019;-89
2023/08/08 05:33:05;;;;;;;20.80;6.65;;;15.40;99.90;;;;;;4948660;28;20094;-87
2023/08/08 05:35:31;;;;;;;16.92;6.30;;;15.40;99.90;;;;;;4931330;28;20027;-86
2023/08/08 05:37:57;;;;;;;13.32;6.00;;;15.50;99.90;;;;;;4923401;28;20023;-89
2023/08/08 05:40:25;;;;;;;17.75;7.13;;;15.40;99.90;;;;;;4948850;28;20027;-87
2023/08/08 05:42:50;;;;;;;19.20;7.85;;;15.40;99.90;;;;;;4948513;28;20078;-87
2023/08/08 05:45:16;;;;;;;16.42;7.22;;;15.30;99.90;;;;;;4932755;28;20562;-89
2023/08/08 05:47:44;;;;;;;17.60;7.72;;;15.40;99.90;;;;;;4932292;29;20039;-88
2023/08/08 05:50:10;;;;;;;24.98;9.00;;;15.30;99.90;;;;;;4951775;28;20722;-90
2023/08/08 05:52:35;;;;;;;23.55;8.30;;;15.30;99.90;;;;;;4935103;28;20102;-89
2023/08/08 05:55:01;;;;;;;15.05;8.02;;;15.30;99.90;;;;;;4953723;28;20034;-91
2023/08/08 05:57:27;;;;;;;17.17;7.70;;;15.40;99.90;;;;;;4958665;28;20065;-89
2023/08/08 05:59:55;;;;;;;19.38;8.82;;;15.50;99.90;;;;;;4941661;29;20023;-89
2023/08/08 06:02:21;;;;;;;17.33;8.82;;;15.60;99.90;;;;;;4937490;29;20055;-90
2023/08/08 06:04:47;;;;;;;20.25;8.65;;;15.60;99.90;;;;;;4954302;28;20018;-89
2023/08/08 06:07:15;;;;;;;21.65;8.88;;;15.50;99.90;;;;;;4954607;28;20479;-89
2023/08/08 06:09:40;;;;;;;17.58;9.10;;;15.60;99.90;;;;;;4953225;28;20055;-88
2023/08/08 06:12:07;;;;;;;15.35;8.77;;;15.60;99.90;;;;;;4951143;28;20059;-88
2023/08/08 06:14:35;;;;;;;26.55;8.95;;;15.60;99.90;;;;;;4951627;28;20518;-88
2023/08/08 06:17:01;;;;;;;17.75;9.00;;;15.80;99.90;;;;;;4951400;28;20059;-88
2023/08/08 06:19:26;;;;;;;22.40;9.30;;;15.80;99.90;;;;;;4953997;28;20057;-91
2023/08/08 06:21:52;;;;;;;19.83;8.85;;;15.70;99.90;;;;;;4954269;28;20031;-90
2023/08/08 06:24:20;;;;;;;15.07;8.20;;;15.80;99.90;;;;;;4952970;28;20019;-90
2023/08/08 06:26:45;;;;;;;18.52;9.55;;;16.00;99.90;;;;;;4935567;29;20047;-88
2023/08/08 06:29:12;;;;;;;20.92;9.85;;;16.00;99.90;;;;;;4952720;28;20039;-88
2023/08/08 06:31:37;;;;;;;17.45;9.40;;;15.90;99.90;;;;;;4954340;28;20723;-90
2023/08/08 06:34:05;;;;;;;17.63;8.77;;;16.00;99.90;;;;;;4954432;28;20087;-88
2023/08/08 06:36:33;;;;;;;18.02;9.40;;;16.10;99.90;;;;;;4952078;28;20027;-88
2023/08/08 06:38:59;;;;;;;18.33;8.60;;;16.10;99.90;;;;;;4954485;28;20038;-89
2023/08/08 06:41:25;;;;;;;36.85;10.30;;;16.20;99.90;;;;;;4955168;28;20028;-88
2023/08/08 06:43:51;;;;;;;18.02;8.88;;;16.20;99.90;;;;;;4952240;28;20047;-89
2023/08/08 06:46:20;;;;;;;19.77;9.25;;;16.10;99.90;;;;;;4958660;28;20043;-88
2023/08/08 06:48:47;;;;;;;17.58;8.13;;;16.20;99.90;;;;;;4958430;28;20031;-81
2023/08/08 06:51:13;;;;;;;27.88;9.18;;;16.20;99.90;;;;;;4945578;29;20023;-88
2023/08/08 06:53:39;;;;;;;29.23;8.43;;;16.30;99.90;;;;;;4955898;28;20484;-89
2023/08/08 06:56:04;;;;;;;18.13;9.35;;;16.40;99.90;;;;;;4950825;28;20039;-89
2023/08/08 06:58:30;;;;;;;13.35;7.68;;;16.50;99.90;;;;;;4952352;28;20031;-88
2023/08/08 07:00:55;;;;;;;15.82;7.63;;;16.50;99.90;;;;;;4935538;28;20466;-89
2023/08/08 07:03:21;;;;;;;27.15;7.93;;;16.60;99.90;;;;;;4951273;28;20019;-87
2023/08/08 07:05:51;;;;;;;15.35;7.13;;;16.70;99.90;;;;;;4953313;28;20055;-89
2023/08/08 07:08:18;;;;;;;20.30;7.82;;;16.80;99.90;;;;;;4950535;28;20110;-87
2023/08/08 07:10:44;;;;;;;12.45;7.05;;;16.90;99.90;;;;;;4952492;28;20023;-89
2023/08/08 07:13:09;;;;;;;17.15;7.10;;;17.00;99.90;;;;;;4952046;28;20051;-89
2023/08/08 07:15:35;;;;;;;20.40;7.25;;;16.90;99.90;;;;;;4951928;28;20030;-87
2023/08/08 07:18:00;;;;;;;12.75;5.75;;;16.90;99.90;;;;;;4952410;28;20436;-88
2023/08/08 07:20:26;;;;;;;17.98;5.72;;;17.10;99.90;;;;;;4949243;28;20114;-78
2023/08/08 07:22:54;;;;;;;9.55;5.07;;;17.30;99.90;;;;;;4947074;28;20118;-77
2023/08/08 07:25:20;;;;;;;23.35;5.72;;;17.40;99.90;;;;;;4920387;28;20023;-76
2023/08/08 07:27:48;;;;;;;9.98;4.30;;;17.30;99.90;;;;;;4931345;29;20029;-89
2023/08/08 07:30:14;;;;;;;15.50;4.38;;;17.40;99.90;;;;;;4949406;28;20039;-77
2023/08/08 07:32:39;;;;;;;14.35;4.72;;;17.40;99.90;;;;;;4945989;28;20468;-78
2023/08/08 07:35:05;;;;;;;16.10;3.50;;;17.40;99.90;;;;;;4930717;29;20050;-77
2023/08/08 07:37:33;;;;;;;13.68;4.13;;;17.60;99.60;;;;;;4945747;28;20042;-77
2023/08/08 07:40:03;;;;;;;16.67;4.38;;;17.80;99.40;;;;;;4947048;28;20035;-78
2023/08/08 07:42:29;;;;;;;11.20;3.70;;;17.70;99.80;;;;;;4945129;28;20039;-77
2023/08/08 07:44:55;;;;;;;16.50;4.40;;;17.80;99.50;;;;;;4945457;28;20023;-77
2023/08/08 07:47:20;;;;;;;12.88;3.60;;;17.80;98.90;;;;;;4951554;28;20016;-90
2023/08/08 07:49:46;;;;;;;10.07;4.15;;;17.90;98.30;;;;;;4945710;28;20443;-77
2023/08/08 07:52:12;;;;;;;8.35;2.85;;;17.90;99.40;;;;;;4946028;28;20519;-77
2023/08/08 07:54:37;;;;;;;13.60;3.35;;;17.90;98.50;;;;;;4947378;28;20039;-78
2023/08/08 07:57:03;;;;;;;11.35;3.72;;;17.70;98.70;;;;;;4945323;28;20426;-78
2023/08/08 07:59:30;;;;;;;14.27;3.85;;;17.80;99.50;;;;;;4948807;28;20027;-78
2023/08/08 08:01:56;;;;;;;10.23;2.97;;;18.10;97.60;;;;;;4924655;28;20039;-78
2023/08/08 08:04:21;;;;;;;8.27;3.38;;;18.10;98.00;;;;;;5082500;23;20112;-78
2023/08/08 08:06:49;;;;;;;8.90;2.83;;;18.20;97.10;;;;;;4921368;29;20032;-90
2023/08/08 08:09:15;;;;;;;9.57;2.65;;;18.20;97.20;;;;;;4911073;29;20024;-91
2023/08/08 08:11:41;;;;;;;7.07;2.63;;;18.30;97.60;;;;;;4927865;29;20055;-90
2023/08/08 08:14:06;;;;;;;7.25;2.45;;;18.50;97.40;;;;;;4905077;29;20036;-76
2023/08/08 08:16:33;;;;;;;10.13;2.50;;;18.70;96.00;;;;;;4899548;29;20107;-78
2023/08/08 08:18:58;;;;;;;8.52;2.88;;;18.50;96.00;;;;;;4906904;29;20122;-78
2023/08/08 08:21:24;;;;;;;9.25;2.47;;;18.40;96.20;;;;;;4900225;29;20130;-77
2023/08/08 08:23:50;;;;;;;9.10;2.45;;;18.60;95.40;;;;;;4927192;29;20027;-77
2023/08/08 08:26:15;;;;;;;7.32;2.38;;;18.70;95.30;;;;;;4903821;29;20060;-77
2023/08/08 08:28:41;;;;;;;8.90;2.95;;;18.80;94.80;;;;;;4901805;29;20046;-77
2023/08/08 08:31:07;;;;;;;8.50;2.10;;;18.60;94.40;;;;;;4911170;29;20983;-88
2023/08/08 08:33:33;;;;;;;11.18;2.75;;;18.60;94.90;;;;;;4927508;29;20055;-77
2023/08/08 08:35:59;;;;;;;7.95;2.28;;;18.60;95.00;;;;;;4917699;29;20392;-78
2023/08/08 08:38:24;;;;;;;9.27;1.67;;;18.70;94.70;;;;;;4918108;29;20028;-77
2023/08/08 08:40:53;;;;;;;9.23;2.17;;;18.90;94.30;;;;;;4919302;29;20028;-77
2023/08/08 08:43:19;;;;;;;5.75;2.67;;;18.90;93.70;;;;;;4903680;29;20027;-77
2023/08/08 08:45:51;;;;;;;8.48;2.35;;;19.00;93.90;;;;;;4917750;29;20028;-78
2023/08/08 08:48:19;;;;;;;6.65;2.22;;;19.00;93.70;;;;;;4918803;29;20032;-91
2023/08/08 08:50:47;;;;;;;2.88;1.83;;;19.20;93.90;;;;;;4917925;29;20027;-78
2023/08/08 08:53:17;;;;;;;4.13;1.98;;;19.40;92.80;;;;;;4915991;29;20032;-77
2023/08/08 08:55:43;;;;;;;3.60;1.80;;;19.50;91.90;;;;;;4918600;29;20507;-77
2023/08/08 08:58:16;;;;;;;6.88;2.20;;;19.60;91.70;;;;;;4922849;29;20143;-89
2023/08/08 09:00:43;;;;;;;5.30;1.30;;;19.50;91.50;;;;;;4911931;29;20035;-76
2023/08/08 09:03:09;;;;;;;4.10;1.98;;;19.60;90.40;;;;;;4920118;29;20027;-77
2023/08/08 09:05:36;;;;;;;6.30;1.45;;;19.70;90.00;;;;;;4919195;29;20043;-77
2023/08/08 09:08:02;;;;;;;3.53;1.50;;;19.70;89.00;;;;;;4918792;29;20071;-77
2023/08/08 09:10:35;;;;;;;3.75;1.23;;;19.50;90.50;;;;;;4917640;29;20028;-77
2023/08/08 09:13:01;;;;;;;3.75;1.60;;;19.70;89.10;;;;;;4907163;29;20154;-80
2023/08/08 09:15:31;;;;;;;4.97;1.30;;;20.00;88.80;;;;;;4916621;29;20048;-78
2023/08/08 09:17:57;;;;;;;3.70;1.10;;;20.10;84.90;;;;;;4920669;29;20034;-77
2023/08/08 09:20:23;;;;;;;4.63;1.40;;;20.20;84.00;;;;;;4904069;29;20032;-77
2023/08/08 09:22:52;;;;;;;4.53;1.50;;;20.20;84.60;;;;;;4918824;29;20032;-90
2023/08/08 09:25:18;;;;;;;2.83;1.50;;;20.50;83.70;;;;;;4917515;29;20058;-90
2023/08/08 09:27:44;;;;;;;3.42;1.30;;;20.80;82.80;;;;;;4913615;29;20028;-89
2023/08/08 09:30:11;;;;;;;4.90;1.70;;;21.10;83.90;;;;;;4922170;29;20020;-78
2023/08/08 09:32:37;;;;;;;1.73;1.33;;;21.40;83.30;;;;;;4913881;29;20027;-77
2023/08/08 09:35:05;;;;;;;4.15;1.90;;;21.70;82.60;;;;;;4916588;29;20064;-78
2023/08/08 09:37:33;;;;;;;6.72;1.38;;;21.40;83.20;;;;;;4928361;29;20016;-89
2023/08/08 09:39:59;;;;;;;3.65;1.45;;;21.70;83.10;;;;;;4922069;29;20043;-89
2023/08/08 09:42:29;;;;;;;4.63;1.40;;;22.00;82.30;;;;;;4940743;28;20035;-89
2023/08/08 09:44:56;;;;;;;4.57;1.10;;;21.90;80.20;;;;;;4926230;29;20163;-89
2023/08/08 09:47:22;;;;;;;3.97;1.40;;;22.20;77.30;;;;;;4921236;29;20103;-90
2023/08/08 09:49:48;;;;;;;7.03;1.23;;;22.30;77.90;;;;;;4922494;29;20122;-89
2023/08/08 09:52:16;;;;;;;3.83;1.27;;;22.70;78.20;;;;;;4921352;29;20060;-90
2023/08/08 09:54:43;;;;;;;6.43;1.23;;;22.40;77.20;;;;;;4917756;29;20074;-89
2023/08/08 09:57:09;;;;;;;2.17;1.15;;;22.40;76.50;;;;;;4921057;29;20464;-91
2023/08/08 09:59:37;;;;;;;1.60;1.08;;;22.40;75.70;;;;;;4921160;29;20103;-86
2023/08/08 10:02:04;;;;;;;2.53;1.63;;;22.10;75.70;;;;;;4918733;29;20071;-77
2023/08/08 10:04:30;;;;;;;7.03;1.42;;;22.20;76.70;;;;;;4915136;29;20436;-77
2023/08/08 10:06:55;;;;;;;1.88;1.10;;;22.30;75.40;;;;;;4902490;29;20126;-86
2023/08/08 10:09:21;;;;;;;4.68;1.58;;;22.20;75.60;;;;;;4909797;29;20730;-77
2023/08/08 10:11:49;;;;;;;13.43;1.75;;;22.30;76.40;;;;;;4915762;29;20062;-77
2023/08/08 10:14:15;;;;;;;2.75;1.30;;;22.10;76.10;;;;;;4899061;29;20130;-77
2023/08/08 10:16:44;;;;;;;8.93;1.35;;;22.30;75.60;;;;;;4920673;29;20389;-78
2023/08/08 10:19:10;;;;;;;4.18;1.50;;;22.00;78.10;;;;;;4917463;29;20021;-77
2023/08/08 10:21:45;;;;;;;3.50;1.20;;;22.20;79.60;;;;;;4900449;29;20030;-78
2023/08/08 10:24:10;;;;;;;9.02;1.83;;;22.70;79.20;;;;;;4915775;29;20116;-77
2023/08/08 10:27:15;;;;;;;4.00;1.98;;;22.80;80.80;;;;;;4922516;29;20110;-88
2023/08/08 10:29:40;;;;;;;3.63;1.30;;;22.50;79.50;;;;;;4845579;29;20029;-88
2023/08/08 10:32:07;;;;;;;2.30;1.10;;;22.50;79.00;;;;;;4906641;29;20042;-88
2023/08/08 10:34:43;;;;;;;4.15;1.42;;;22.40;75.30;;;;;;4912655;29;20051;-85
2023/08/08 10:37:17;;;;;;;3.10;1.40;;;22.30;75.30;;;;;;4930136;29;20111;-88
2023/08/08 10:39:52;;;;;;;1.88;1.20;;;22.50;75.20;;;;;;4929551;29;20573;-77
2023/08/08 10:42:19;;;;;;;3.90;1.25;;;22.90;74.90;;;;;;4924220;29;20039;-77
2023/08/08 10:45:00;;;;;;;5.43;1.42;;;23.30;75.30;;;;;;4911385;29;20024;-78
2023/08/08 10:47:32;;;;;;;3.97;1.55;;;23.20;73.90;;;;;;4922284;29;20028;-77
2023/08/08 10:50:07;;;;;;;11.30;1.70;;;23.10;76.20;;;;;;4899179;29;20039;-78
2023/08/08 10:52:54;;;;;;;3.85;1.92;;;23.00;77.40;;;;;;4905547;29;20126;-77
2023/08/08 10:55:26;;;;;;;5.78;1.92;;;22.70;79.00;;;;;;4921610;29;20029;-90
2023/08/08 10:58:19;;;;;;;7.60;1.85;;;22.20;80.00;;;;;;4909977;29;20028;-87
2023/08/08 11:00:45;;;;;;;5.95;2.35;;;21.80;82.10;;;;;;4923032;29;20036;-85
2023/08/08 11:03:14;;;;;;;4.05;1.45;;;21.60;83.10;;;;;;4926056;29;20035;-87
2023/08/08 11:05:44;;;;;;;5.53;2.03;;;20.70;85.50;;;;;;4923637;29;20028;-88
2023/08/08 11:08:12;;;;;;;10.57;2.08;;;20.20;88.70;;;;;;4920940;29;20028;-88
2023/08/08 11:10:40;;;;;;;4.57;1.67;;;19.80;90.60;;;;;;4885932;29;20036;-89
2023/08/08 11:13:07;;;;;;;4.00;1.60;;;19.90;91.50;;;;;;4904392;29;20017;-88
2023/08/08 11:15:34;;;;;;;6.90;2.20;;;20.40;90.70;;;;;;4895524;29;20024;-89
2023/08/08 11:18:00;;;;;;;4.55;2.40;;;20.80;90.00;;;;;;4903785;29;20461;-89
2023/08/08 11:20:33;;;;;;;6.18;1.73;;;20.90;88.50;;;;;;4903630;29;20059;-77
2023/08/08 11:22:59;;;;;;;11.35;2.00;;;20.90;88.70;;;;;;4903366;29;20039;-77
2023/08/08 11:25:27;;;;;;;7.03;1.65;;;21.30;87.50;;;;;;4900982;29;20032;-77
2023/08/08 11:27:53;;;;;;;9.18;1.50;;;21.80;83.90;;;;;;4903288;29;20137;-77
2023/08/08 11:30:21;;;;;;;2.92;1.50;;;22.20;82.00;;;;;;4906789;29;20051;-78
2023/08/08 11:32:50;;;;;;;5.45;1.50;;;22.60;80.20;;;;;;4886245;29;20024;-78
2023/08/08 11:35:17;;;;;;;4.38;1.17;;;23.10;78.30;;;;;;4904096;29;20036;-78
2023/08/08 11:37:45;;;;;;;3.05;1.58;;;22.90;76.00;;;;;;4916162;29;20060;-80
2023/08/08 11:40:12;;;;;;;5.10;1.42;;;22.70;75.30;;;;;;4914272;29;20434;-85
2023/08/08 11:42:45;;;;;;;3.53;1.42;;;22.40;76.40;;;;;;4907311;29;20019;-86
2023/08/08 11:45:12;;;;;;;3.97;1.33;;;22.10;78.00;;;;;;4903231;29;20029;-88
2023/08/08 11:47:39;;;;;;;2.80;1.15;;;21.90;77.90;;;;;;4903282;29;20043;-91
2023/08/08 11:50:06;;;;;;;2.70;1.45;;;22.00;78.70;;;;;;4902959;29;20025;-83
2023/08/08 11:52:34;;;;;;;6.10;1.50;;;22.40;78.20;;;;;;4901739;29;20020;-86
2023/08/08 11:55:04;;;;;;;5.28;1.70;;;22.20;79.20;;;;;;4907533;29;20028;-88
2023/08/08 11:57:33;;;;;;;2.75;1.38;;;22.00;80.00;;;;;;4903287;29;20031;-89
2023/08/08 11:59:58;;;;;;;6.97;1.75;;;22.20;77.20;;;;;;4904767;29;20075;-90
2023/08/08 12:02:27;;;;;;;4.97;1.55;;;22.00;78.80;;;;;;4908702;29;20032;-89
2023/08/08 12:04:55;;;;;;;2.45;1.15;;;21.90;78.40;;;;;;4895764;29;20032;-88
2023/08/08 12:07:23;;;;;;;3.88;1.33;;;21.70;78.20;;;;;;4887397;29;20023;-88
2023/08/08 12:09:48;;;;;;;4.35;1.38;;;22.00;78.60;;;;;;4889530;29;20370;-78
2023/08/08 12:12:16;;;;;;;3.15;1.30;;;22.30;78.10;;;;;;4897046;29;20035;-77
2023/08/08 12:14:43;;;;;;;2.17;1.30;;;22.20;76.70;;;;;;4900330;29;20119;-77
2023/08/08 12:17:09;;;;;;;3.17;1.50;;;22.10;76.60;;;;;;4903629;29;20031;-78
2023/08/08 12:19:35;;;;;;;4.68;1.60;;;22.00;78.40;;;;;;4901494;29;20032;-77
2023/08/08 12:22:00;;;;;;;5.20;1.88;;;22.20;78.80;;;;;;4904609;29;20036;-79
2023/08/08 12:24:26;;;;;;;3.45;1.35;;;22.70;77.80;;;;;;4903293;29;20012;-87
2023/08/08 12:26:52;;;;;;;3.55;1.35;;;23.00;77.60;;;;;;4911973;29;20107;-78
2023/08/08 12:29:17;;;;;;;4.90;1.60;;;23.20;76.20;;;;;;4906358;29;20046;-77
2023/08/08 12:31:43;;;;;;;3.72;1.77;;;23.30;74.80;;;;;;4902783;29;20029;-77
2023/08/08 12:34:09;;;;;;;1.85;1.38;;;23.10;75.30;;;;;;4904304;29;20039;-91
2023/08/08 12:36:35;;;;;;;5.18;1.58;;;22.80;75.00;;;;;;4903648;29;20358;-90
2023/08/08 12:39:01;;;;;;;2.92;1.35;;;22.40;76.70;;;;;;4890430;29;20024;-88
2023/08/08 12:41:29;;;;;;;5.38;1.65;;;22.50;78.60;;;;;;4907584;29;20083;-90